TimePST,TemperatureF,Dew PointF,Humidity,Sea Level PressureIn,VisibilityMPH,Wind Direction,Wind SpeedMPH,Gust SpeedMPH,PrecipitationIn,Events,Conditions,WindDirDegrees,DateUTC
12:53 AM,33.1,30.0,89,30.06,10.0,Calm,Calm,-,N/A,,Scattered Clouds,0,2013-12-03 08:53:00
1:53 AM,30.0,28.0,92,30.07,9.0,NNE,3.5,-,N/A,,Partly Cloudy,20,2013-12-03 09:53:00
2:53 AM,30.9,28.9,92,30.07,9.0,Calm,Calm,-,N/A,,Clear,0,2013-12-03 10:53:00
3:53 AM,28.0,26.1,92,30.06,6.0,Calm,Calm,-,N/A,,Clear,0,2013-12-03 11:53:00
4:53 AM,28.9,27.0,92,30.06,6.0,Calm,Calm,-,N/A,,Clear,0,2013-12-03 12:53:00
5:21 AM,26.1,25.0,96,30.04,1.5,NE,3.5,-,N/A,,Mostly Cloudy,40,2013-12-03 13:21:00
5:29 AM,26.1,24.1,92,30.04,0.5,NNE,8.1,-,N/A,Fog,Light Freezing Fog,30,2013-12-03 13:29:00
5:33 AM,26.1,24.1,92,30.05,0.8,NNE,6.9,-,N/A,,Mostly Cloudy,30,2013-12-03 13:33:00
5:40 AM,27.0,25.0,92,30.05,1.0,NE,5.8,-,N/A,,Overcast,40,2013-12-03 13:40:00
5:45 AM,27.0,26.1,96,30.05,0.2,NNE,3.5,-,N/A,Fog,Light Freezing Fog,20,2013-12-03 13:45:00
5:50 AM,28.4,26.6,93,30.05,0.2,Calm,Calm,-,N/A,Fog,Light Freezing Fog,0,2013-12-03 13:50:00
5:53 AM,28.0,27.0,96,30.08,0.2,Calm,Calm,-,N/A,Fog,Light Freezing Fog,0,2013-12-03 13:53:00
6:03 AM,28.0,27.0,96,30.05,0.5,Calm,Calm,-,N/A,Fog,Light Freezing Fog,0,2013-12-03 14:03:00
6:08 AM,28.9,27.0,92,30.05,1.0,Calm,Calm,-,N/A,,Overcast,0,2013-12-03 14:08:00
6:15 AM,28.9,27.0,92,30.05,3.0,Calm,Calm,-,N/A,,Overcast,0,2013-12-03 14:15:00
6:53 AM,28.9,28.0,96,30.09,8.0,Calm,Calm,-,N/A,,Overcast,0,2013-12-03 14:53:00
7:06 AM,28.9,27.0,92,30.06,7.0,Calm,Calm,-,N/A,,Overcast,0,2013-12-03 15:06:00
7:53 AM,28.9,27.0,92,30.10,7.0,NNW,5.8,-,N/A,,Overcast,340,2013-12-03 15:53:00
8:53 AM,30.0,28.0,92,30.10,6.0,SW,4.6,-,N/A,,Overcast,230,2013-12-03 16:53:00
9:53 AM,32.0,30.0,92,30.12,9.0,Calm,Calm,-,N/A,,Overcast,0,2013-12-03 17:53:00
10:53 AM,35.1,30.9,85,30.11,10.0,Calm,Calm,-,N/A,,Overcast,0,2013-12-03 18:53:00
11:53 AM,39.0,32.0,76,30.08,10.0,Calm,Calm,-,N/A,,Scattered Clouds,0,2013-12-03 19:53:00
12:53 PM,43.0,32.0,65,30.06,10.0,Calm,Calm,-,N/A,,Scattered Clouds,0,2013-12-03 20:53:00
1:53 PM,42.1,27.0,55,30.05,10.0,WNW,4.6,-,N/A,,Scattered Clouds,290,2013-12-03 21:53:00
2:53 PM,42.1,27.0,55,30.04,10.0,West,10.4,-,N/A,,Mostly Cloudy,280,2013-12-03 22:53:00
3:53 PM,41.0,27.0,57,30.05,10.0,West,9.2,-,N/A,,Scattered Clouds,270,2013-12-03 23:53:00
4:53 PM,39.0,28.0,65,30.05,10.0,NNW,3.5,-,N/A,,Mostly Cloudy,340,2013-12-04 00:53:00
5:53 PM,35.1,27.0,72,30.06,10.0,Calm,Calm,-,N/A,,Scattered Clouds,0,2013-12-04 01:53:00
6:53 PM,34.0,26.1,73,30.08,9.0,Calm,Calm,-,N/A,,Mostly Cloudy,0,2013-12-04 02:53:00
7:53 PM,34.0,27.0,75,30.08,9.0,SW,3.5,-,N/A,,Mostly Cloudy,220,2013-12-04 03:53:00
8:53 PM,30.9,25.0,79,30.09,9.0,SE,4.6,-,N/A,,Scattered Clouds,140,2013-12-04 04:53:00
9:53 PM,30.9,25.0,79,30.10,10.0,Calm,Calm,-,N/A,,Clear,0,2013-12-04 05:53:00
10:53 PM,28.0,23.0,81,30.11,10.0,NNE,3.5,-,N/A,,Clear,20,2013-12-04 06:53:00
11:53 PM,28.9,19.9,69,30.13,10.0,NW,3.5,-,N/A,,Clear,320,2013-12-04 07:53:00